Portada
METAR-TAF:

METAR-TAF

Aeroports :

Yezd, Iran

latitud: 31-54N, longitud: 054-24E, altitud: 1238 m

Observació

L'informe es va fer fa 12 minuts, a les 13:00 UTC
Vent 4 kt del Nord
Temperatura 42°C
Humitat 11%
Pressió 1007 hPa
Visibilitat 10 km o més
Escasses núvols a una alçada de 4500 ft

METAR: OIYY 081300Z 36004KT 9999 FEW045 42/06 Q1007

Hora: 17:42 (13:12 UTC)

Pronòstic

L'informe es va fer fa 2 hores i 12 minuts, a les 11:00 UTC
Pronòstic vàlid del 08 a les 12 UTC al 08 a les 21 UTC
Vent 6 kt del Est/Sud-Est
Visibilitat: 7000 m
Temporalment
l' 08 a les 18 UTC al 08 a les 21 UTC
Vent 10 kt del Sud/Sud-Est amb ràfegues de 20 kt

TAF: OIYY 081100Z 0812/0821 12006KT 7000 NSC TEMPO 0818/0821 16010G20KT

Observacions i pronòstics meteorològics de més de 4000 aeroports (METAR i TAF).

Les estacions disponibles són els punts grocs i vermells al mapa.

Posi el ratolí al punt desitjat per veure el nom de l'estació.

Feu clic per veure les observacions i els pronòstics meteorològics.

Per canviar el mapa: feu clic els botons verds amb una creu de color negre per apropar; al botó verd amb un guió per allunyar la imatge; o en les fletxes verdes per a mapes adjacents.


METAR-TAF: